sensor_id;sensor_type;location;lat;lon;timestamp;P1;durP1;ratioP1;P2;durP2;ratioP2
48006;SDS011;33771;48.180;11.400;2023-05-07T00:01:42;14.75;;;8.10;;
48006;SDS011;33771;48.180;11.400;2023-05-07T00:04:08;12.05;;;7.85;;
48006;SDS011;33771;48.180;11.400;2023-05-07T00:06:34;12.07;;;7.60;;
48006;SDS011;33771;48.180;11.400;2023-05-07T00:08:59;12.68;;;7.35;;
48006;SDS011;33771;48.180;11.400;2023-05-07T00:11:26;12.45;;;7.22;;
48006;SDS011;33771;48.180;11.400;2023-05-07T00:13:52;14.00;;;7.70;;
48006;SDS011;33771;48.180;11.400;2023-05-07T00:16:18;11.63;;;7.43;;
48006;SDS011;33771;48.180;11.400;2023-05-07T00:18:43;14.93;;;7.10;;
48006;SDS011;33771;48.180;11.400;2023-05-07T00:21:10;9.57;;;7.28;;
48006;SDS011;33771;48.180;11.400;2023-05-07T00:23:35;11.82;;;7.78;;
48006;SDS011;33771;48.180;11.400;2023-05-07T00:26:01;12.07;;;7.53;;
48006;SDS011;33771;48.180;11.400;2023-05-07T00:28:27;11.73;;;7.40;;
48006;SDS011;33771;48.180;11.400;2023-05-07T00:30:52;10.35;;;7.07;;
48006;SDS011;33771;48.180;11.400;2023-05-07T00:33:18;11.33;;;6.73;;
48006;SDS011;33771;48.180;11.400;2023-05-07T00:35:45;9.00;;;7.10;;
48006;SDS011;33771;48.180;11.400;2023-05-07T00:38:10;10.63;;;7.35;;
48006;SDS011;33771;48.180;11.400;2023-05-07T00:40:36;12.55;;;8.23;;
48006;SDS011;33771;48.180;11.400;2023-05-07T00:43:02;16.48;;;7.45;;
48006;SDS011;33771;48.180;11.400;2023-05-07T00:45:28;11.63;;;7.10;;
48006;SDS011;33771;48.180;11.400;2023-05-07T00:47:55;11.27;;;6.50;;
48006;SDS011;33771;48.180;11.400;2023-05-07T00:50:22;9.73;;;6.53;;
48006;SDS011;33771;48.180;11.400;2023-05-07T00:52:48;15.80;;;6.80;;
48006;SDS011;33771;48.180;11.400;2023-05-07T00:55:14;9.47;;;6.43;;
48006;SDS011;33771;48.180;11.400;2023-05-07T00:57:42;8.10;;;6.10;;
48006;SDS011;33771;48.180;11.400;2023-05-07T01:00:08;10.00;;;6.73;;
48006;SDS011;33771;48.180;11.400;2023-05-07T01:02:35;9.73;;;6.73;;
48006;SDS011;33771;48.180;11.400;2023-05-07T01:05:00;9.45;;;6.35;;
48006;SDS011;33771;48.180;11.400;2023-05-07T01:07:28;13.68;;;7.13;;
48006;SDS011;33771;48.180;11.400;2023-05-07T01:09:55;12.93;;;6.90;;
48006;SDS011;33771;48.180;11.400;2023-05-07T01:12:22;11.00;;;7.57;;
48006;SDS011;33771;48.180;11.400;2023-05-07T01:14:48;14.03;;;6.83;;
48006;SDS011;33771;48.180;11.400;2023-05-07T01:17:15;7.55;;;6.60;;
48006;SDS011;33771;48.180;11.400;2023-05-07T01:19:41;8.07;;;6.50;;
48006;SDS011;33771;48.180;11.400;2023-05-07T01:22:09;8.05;;;6.63;;
48006;SDS011;33771;48.180;11.400;2023-05-07T01:24:39;12.98;;;6.88;;
48006;SDS011;33771;48.180;11.400;2023-05-07T01:27:06;11.67;;;8.27;;
48006;SDS011;33771;48.180;11.400;2023-05-07T01:29:31;13.07;;;8.30;;
48006;SDS011;33771;48.180;11.400;2023-05-07T01:31:57;14.43;;;8.30;;
48006;SDS011;33771;48.180;11.400;2023-05-07T01:34:25;13.45;;;7.68;;
48006;SDS011;33771;48.180;11.400;2023-05-07T01:36:54;12.10;;;8.40;;
48006;SDS011;33771;48.180;11.400;2023-05-07T01:39:24;12.65;;;7.85;;
48006;SDS011;33771;48.180;11.400;2023-05-07T01:41:50;10.40;;;7.30;;
48006;SDS011;33771;48.180;11.400;2023-05-07T01:44:16;13.05;;;8.27;;
48006;SDS011;33771;48.180;11.400;2023-05-07T01:46:43;18.00;;;9.10;;
48006;SDS011;33771;48.180;11.400;2023-05-07T01:49:09;12.68;;;7.90;;
48006;SDS011;33771;48.180;11.400;2023-05-07T01:51:34;13.63;;;7.73;;
48006;SDS011;33771;48.180;11.400;2023-05-07T01:54:01;11.77;;;7.27;;
48006;SDS011;33771;48.180;11.400;2023-05-07T01:56:26;11.47;;;7.33;;
48006;SDS011;33771;48.180;11.400;2023-05-07T01:58:53;13.43;;;7.03;;
48006;SDS011;33771;48.180;11.400;2023-05-07T02:01:19;9.32;;;6.97;;
48006;SDS011;33771;48.180;11.400;2023-05-07T02:03:45;12.33;;;7.47;;
48006;SDS011;33771;48.180;11.400;2023-05-07T02:06:10;8.83;;;6.97;;
48006;SDS011;33771;48.180;11.400;2023-05-07T02:08:36;9.50;;;6.47;;
48006;SDS011;33771;48.180;11.400;2023-05-07T02:11:01;10.03;;;6.50;;
48006;SDS011;33771;48.180;11.400;2023-05-07T02:13:31;7.97;;;6.20;;
48006;SDS011;33771;48.180;11.400;2023-05-07T02:15:58;6.47;;;5.77;;
48006;SDS011;33771;48.180;11.400;2023-05-07T02:18:23;9.27;;;6.93;;
48006;SDS011;33771;48.180;11.400;2023-05-07T02:20:49;9.67;;;6.43;;
48006;SDS011;33771;48.180;11.400;2023-05-07T02:23:15;9.50;;;6.90;;
48006;SDS011;33771;48.180;11.400;2023-05-07T02:25:40;13.33;;;6.97;;
48006;SDS011;33771;48.180;11.400;2023-05-07T02:28:06;10.57;;;7.20;;
48006;SDS011;33771;48.180;11.400;2023-05-07T02:30:31;10.17;;;6.67;;
48006;SDS011;33771;48.180;11.400;2023-05-07T02:32:57;9.57;;;7.20;;
48006;SDS011;33771;48.180;11.400;2023-05-07T02:35:24;9.13;;;6.90;;
48006;SDS011;33771;48.180;11.400;2023-05-07T02:37:50;8.17;;;6.43;;
48006;SDS011;33771;48.180;11.400;2023-05-07T02:40:15;10.30;;;7.10;;
48006;SDS011;33771;48.180;11.400;2023-05-07T02:42:41;11.47;;;6.90;;
48006;SDS011;33771;48.180;11.400;2023-05-07T02:45:07;6.93;;;5.90;;
48006;SDS011;33771;48.180;11.400;2023-05-07T02:47:33;9.77;;;6.10;;
48006;SDS011;33771;48.180;11.400;2023-05-07T02:49:58;8.00;;;6.43;;
48006;SDS011;33771;48.180;11.400;2023-05-07T02:52:24;7.07;;;6.07;;
48006;SDS011;33771;48.180;11.400;2023-05-07T02:54:49;7.63;;;6.03;;
48006;SDS011;33771;48.180;11.400;2023-05-07T02:57:15;8.00;;;5.93;;
48006;SDS011;33771;48.180;11.400;2023-05-07T02:59:41;8.73;;;6.00;;
48006;SDS011;33771;48.180;11.400;2023-05-07T03:02:07;9.10;;;5.80;;
48006;SDS011;33771;48.180;11.400;2023-05-07T03:04:32;9.00;;;5.37;;
48006;SDS011;33771;48.180;11.400;2023-05-07T03:06:58;7.70;;;6.17;;
48006;SDS011;33771;48.180;11.400;2023-05-07T03:09:23;8.73;;;6.40;;
48006;SDS011;33771;48.180;11.400;2023-05-07T03:11:49;7.90;;;5.67;;
48006;SDS011;33771;48.180;11.400;2023-05-07T03:14:15;7.63;;;6.17;;
48006;SDS011;33771;48.180;11.400;2023-05-07T03:16:40;7.90;;;6.03;;
48006;SDS011;33771;48.180;11.400;2023-05-07T03:19:06;7.43;;;6.10;;
48006;SDS011;33771;48.180;11.400;2023-05-07T03:21:31;8.83;;;6.00;;
48006;SDS011;33771;48.180;11.400;2023-05-07T03:23:58;8.03;;;5.73;;
48006;SDS011;33771;48.180;11.400;2023-05-07T03:26:24;9.00;;;5.43;;
48006;SDS011;33771;48.180;11.400;2023-05-07T03:28:50;8.23;;;6.20;;
48006;SDS011;33771;48.180;11.400;2023-05-07T03:31:16;10.30;;;6.20;;
48006;SDS011;33771;48.180;11.400;2023-05-07T03:33:54;10.00;;;6.80;;
48006;SDS011;33771;48.180;11.400;2023-05-07T03:36:21;9.63;;;6.40;;
48006;SDS011;33771;48.180;11.400;2023-05-07T03:38:48;8.53;;;6.27;;
48006;SDS011;33771;48.180;11.400;2023-05-07T03:41:14;11.90;;;6.73;;
48006;SDS011;33771;48.180;11.400;2023-05-07T03:43:39;8.10;;;6.80;;
48006;SDS011;33771;48.180;11.400;2023-05-07T03:46:05;10.20;;;6.80;;
48006;SDS011;33771;48.180;11.400;2023-05-07T03:48:31;9.17;;;6.83;;
48006;SDS011;33771;48.180;11.400;2023-05-07T03:50:57;14.17;;;8.30;;
48006;SDS011;33771;48.180;11.400;2023-05-07T03:53:22;8.17;;;7.30;;
48006;SDS011;33771;48.180;11.400;2023-05-07T03:55:48;9.17;;;6.87;;
48006;SDS011;33771;48.180;11.400;2023-05-07T03:58:14;9.57;;;6.40;;
48006;SDS011;33771;48.180;11.400;2023-05-07T04:00:40;8.50;;;6.43;;
48006;SDS011;33771;48.180;11.400;2023-05-07T04:03:06;8.60;;;6.23;;
48006;SDS011;33771;48.180;11.400;2023-05-07T04:05:31;10.13;;;6.90;;
48006;SDS011;33771;48.180;11.400;2023-05-07T04:08:00;9.37;;;6.83;;
48006;SDS011;33771;48.180;11.400;2023-05-07T04:10:26;9.77;;;6.57;;
48006;SDS011;33771;48.180;11.400;2023-05-07T04:12:53;9.30;;;6.50;;
48006;SDS011;33771;48.180;11.400;2023-05-07T04:15:18;9.90;;;6.17;;
48006;SDS011;33771;48.180;11.400;2023-05-07T04:17:44;8.57;;;6.47;;
48006;SDS011;33771;48.180;11.400;2023-05-07T04:20:13;10.50;;;7.10;;
48006;SDS011;33771;48.180;11.400;2023-05-07T04:22:40;11.93;;;6.60;;
48006;SDS011;33771;48.180;11.400;2023-05-07T04:25:05;8.70;;;6.90;;
48006;SDS011;33771;48.180;11.400;2023-05-07T04:27:32;10.63;;;7.00;;
48006;SDS011;33771;48.180;11.400;2023-05-07T04:29:58;8.47;;;6.60;;
48006;SDS011;33771;48.180;11.400;2023-05-07T04:32:25;7.93;;;5.63;;
48006;SDS011;33771;48.180;11.400;2023-05-07T04:34:51;12.00;;;6.43;;
48006;SDS011;33771;48.180;11.400;2023-05-07T04:37:17;11.47;;;6.50;;
48006;SDS011;33771;48.180;11.400;2023-05-07T04:39:42;10.07;;;6.43;;
48006;SDS011;33771;48.180;11.400;2023-05-07T04:42:08;8.50;;;6.47;;
48006;SDS011;33771;48.180;11.400;2023-05-07T04:44:35;9.87;;;6.03;;
48006;SDS011;33771;48.180;11.400;2023-05-07T04:47:02;9.20;;;5.80;;
48006;SDS011;33771;48.180;11.400;2023-05-07T04:49:27;7.97;;;5.70;;
48006;SDS011;33771;48.180;11.400;2023-05-07T04:51:53;9.98;;;5.70;;
48006;SDS011;33771;48.180;11.400;2023-05-07T04:54:18;7.97;;;5.63;;
48006;SDS011;33771;48.180;11.400;2023-05-07T04:56:44;6.72;;;5.10;;
48006;SDS011;33771;48.180;11.400;2023-05-07T04:59:09;9.55;;;4.95;;
48006;SDS011;33771;48.180;11.400;2023-05-07T05:01:35;6.32;;;5.20;;
48006;SDS011;33771;48.180;11.400;2023-05-07T05:04:00;7.95;;;4.97;;
48006;SDS011;33771;48.180;11.400;2023-05-07T05:06:26;6.97;;;5.15;;
48006;SDS011;33771;48.180;11.400;2023-05-07T05:08:51;5.87;;;5.27;;
48006;SDS011;33771;48.180;11.400;2023-05-07T05:11:17;8.45;;;5.57;;
48006;SDS011;33771;48.180;11.400;2023-05-07T05:13:43;9.65;;;5.63;;
48006;SDS011;33771;48.180;11.400;2023-05-07T05:16:08;9.88;;;5.30;;
48006;SDS011;33771;48.180;11.400;2023-05-07T05:18:34;10.33;;;5.77;;
48006;SDS011;33771;48.180;11.400;2023-05-07T05:20:59;10.13;;;5.53;;
48006;SDS011;33771;48.180;11.400;2023-05-07T05:23:25;9.43;;;5.40;;
48006;SDS011;33771;48.180;11.400;2023-05-07T05:25:55;6.70;;;5.30;;
48006;SDS011;33771;48.180;11.400;2023-05-07T05:28:22;6.95;;;5.40;;
48006;SDS011;33771;48.180;11.400;2023-05-07T05:30:48;5.70;;;5.15;;
48006;SDS011;33771;48.180;11.400;2023-05-07T05:33:14;6.65;;;5.32;;
48006;SDS011;33771;48.180;11.400;2023-05-07T05:35:39;7.35;;;5.63;;
48006;SDS011;33771;48.180;11.400;2023-05-07T05:38:05;9.57;;;6.30;;
48006;SDS011;33771;48.180;11.400;2023-05-07T05:40:30;7.43;;;5.85;;
48006;SDS011;33771;48.180;11.400;2023-05-07T05:42:57;8.07;;;6.38;;
48006;SDS011;33771;48.180;11.400;2023-05-07T05:45:22;9.82;;;6.53;;
48006;SDS011;33771;48.180;11.400;2023-05-07T05:47:48;10.45;;;5.95;;
48006;SDS011;33771;48.180;11.400;2023-05-07T05:50:13;8.75;;;6.38;;
48006;SDS011;33771;48.180;11.400;2023-05-07T05:52:39;8.63;;;6.22;;
48006;SDS011;33771;48.180;11.400;2023-05-07T05:55:05;9.30;;;6.30;;
48006;SDS011;33771;48.180;11.400;2023-05-07T05:57:31;10.40;;;6.72;;
48006;SDS011;33771;48.180;11.400;2023-05-07T05:59:57;8.13;;;5.95;;
48006;SDS011;33771;48.180;11.400;2023-05-07T06:02:23;7.55;;;6.22;;
48006;SDS011;33771;48.180;11.400;2023-05-07T06:04:48;8.60;;;5.60;;
48006;SDS011;33771;48.180;11.400;2023-05-07T06:07:14;8.45;;;5.68;;
48006;SDS011;33771;48.180;11.400;2023-05-07T06:09:39;6.45;;;4.97;;
48006;SDS011;33771;48.180;11.400;2023-05-07T06:12:05;7.85;;;5.15;;
48006;SDS011;33771;48.180;11.400;2023-05-07T06:14:31;8.25;;;4.90;;
48006;SDS011;33771;48.180;11.400;2023-05-07T06:16:56;6.50;;;4.47;;
48006;SDS011;33771;48.180;11.400;2023-05-07T06:19:22;7.53;;;4.85;;
48006;SDS011;33771;48.180;11.400;2023-05-07T06:21:48;5.95;;;4.53;;
48006;SDS011;33771;48.180;11.400;2023-05-07T06:24:15;5.63;;;4.35;;
48006;SDS011;33771;48.180;11.400;2023-05-07T06:26:40;7.22;;;4.80;;
48006;SDS011;33771;48.180;11.400;2023-05-07T06:29:06;9.02;;;4.97;;
48006;SDS011;33771;48.180;11.400;2023-05-07T06:31:31;9.27;;;5.63;;
48006;SDS011;33771;48.180;11.400;2023-05-07T06:33:57;6.15;;;4.45;;
48006;SDS011;33771;48.180;11.400;2023-05-07T06:36:24;7.32;;;4.53;;
48006;SDS011;33771;48.180;11.400;2023-05-07T06:38:49;7.15;;;4.80;;
48006;SDS011;33771;48.180;11.400;2023-05-07T06:41:15;7.90;;;4.60;;
48006;SDS011;33771;48.180;11.400;2023-05-07T06:43:40;9.48;;;5.07;;
48006;SDS011;33771;48.180;11.400;2023-05-07T06:46:06;9.07;;;4.65;;
48006;SDS011;33771;48.180;11.400;2023-05-07T06:48:31;5.60;;;4.60;;
48006;SDS011;33771;48.180;11.400;2023-05-07T06:50:57;10.00;;;4.70;;
48006;SDS011;33771;48.180;11.400;2023-05-07T06:53:23;7.50;;;4.70;;
48006;SDS011;33771;48.180;11.400;2023-05-07T06:55:49;9.98;;;4.70;;
48006;SDS011;33771;48.180;11.400;2023-05-07T06:58:15;10.05;;;3.92;;
48006;SDS011;33771;48.180;11.400;2023-05-07T07:00:40;7.63;;;4.07;;
48006;SDS011;33771;48.180;11.400;2023-05-07T07:03:06;5.28;;;4.15;;
48006;SDS011;33771;48.180;11.400;2023-05-07T07:05:32;8.30;;;4.15;;
48006;SDS011;33771;48.180;11.400;2023-05-07T07:07:58;7.85;;;4.00;;
48006;SDS011;33771;48.180;11.400;2023-05-07T07:10:23;4.55;;;3.53;;
48006;SDS011;33771;48.180;11.400;2023-05-07T07:12:49;7.95;;;4.07;;
48006;SDS011;33771;48.180;11.400;2023-05-07T07:15:17;6.40;;;3.63;;
48006;SDS011;33771;48.180;11.400;2023-05-07T07:17:43;5.22;;;3.53;;
48006;SDS011;33771;48.180;11.400;2023-05-07T07:20:09;7.97;;;3.85;;
48006;SDS011;33771;48.180;11.400;2023-05-07T07:22:35;7.35;;;4.30;;
48006;SDS011;33771;48.180;11.400;2023-05-07T07:25:00;8.65;;;4.15;;
48006;SDS011;33771;48.180;11.400;2023-05-07T07:27:26;4.95;;;3.63;;
48006;SDS011;33771;48.180;11.400;2023-05-07T07:29:51;4.85;;;3.72;;
48006;SDS011;33771;48.180;11.400;2023-05-07T07:32:17;7.22;;;4.18;;
48006;SDS011;33771;48.180;11.400;2023-05-07T07:34:43;6.50;;;4.53;;
48006;SDS011;33771;48.180;11.400;2023-05-07T07:37:12;6.88;;;4.65;;
48006;SDS011;33771;48.180;11.400;2023-05-07T07:39:38;5.88;;;3.95;;
48006;SDS011;33771;48.180;11.400;2023-05-07T07:42:03;6.88;;;3.28;;
48006;SDS011;33771;48.180;11.400;2023-05-07T07:44:29;6.20;;;4.07;;
48006;SDS011;33771;48.180;11.400;2023-05-07T07:46:54;5.55;;;3.90;;
48006;SDS011;33771;48.180;11.400;2023-05-07T07:49:20;6.05;;;3.83;;
48006;SDS011;33771;48.180;11.400;2023-05-07T07:51:46;4.45;;;3.30;;
48006;SDS011;33771;48.180;11.400;2023-05-07T07:54:11;3.92;;;2.67;;
48006;SDS011;33771;48.180;11.400;2023-05-07T07:56:37;5.57;;;3.80;;
48006;SDS011;33771;48.180;11.400;2023-05-07T07:59:03;5.15;;;3.20;;
48006;SDS011;33771;48.180;11.400;2023-05-07T08:01:31;6.43;;;3.08;;
48006;SDS011;33771;48.180;11.400;2023-05-07T08:03:57;4.13;;;3.10;;
48006;SDS011;33771;48.180;11.400;2023-05-07T08:06:23;4.90;;;3.25;;
48006;SDS011;33771;48.180;11.400;2023-05-07T08:08:50;5.03;;;3.40;;
48006;SDS011;33771;48.180;11.400;2023-05-07T08:11:16;5.72;;;3.50;;
48006;SDS011;33771;48.180;11.400;2023-05-07T08:13:42;4.65;;;3.00;;
48006;SDS011;33771;48.180;11.400;2023-05-07T08:16:08;4.45;;;3.10;;
48006;SDS011;33771;48.180;11.400;2023-05-07T08:18:33;5.13;;;3.17;;
48006;SDS011;33771;48.180;11.400;2023-05-07T08:20:59;4.18;;;3.25;;
48006;SDS011;33771;48.180;11.400;2023-05-07T08:23:25;4.65;;;3.38;;
48006;SDS011;33771;48.180;11.400;2023-05-07T08:25:51;8.27;;;3.30;;
48006;SDS011;33771;48.180;11.400;2023-05-07T08:28:17;6.13;;;3.30;;
48006;SDS011;33771;48.180;11.400;2023-05-07T08:30:42;4.78;;;3.22;;
48006;SDS011;33771;48.180;11.400;2023-05-07T08:33:08;5.40;;;2.90;;
48006;SDS011;33771;48.180;11.400;2023-05-07T08:35:34;4.35;;;3.17;;
48006;SDS011;33771;48.180;11.400;2023-05-07T08:38:00;7.40;;;3.47;;
48006;SDS011;33771;48.180;11.400;2023-05-07T08:40:26;7.75;;;3.60;;
48006;SDS011;33771;48.180;11.400;2023-05-07T08:42:52;3.92;;;3.25;;
48006;SDS011;33771;48.180;11.400;2023-05-07T08:45:19;4.75;;;2.70;;
48006;SDS011;33771;48.180;11.400;2023-05-07T08:47:52;6.20;;;2.40;;
48006;SDS011;33771;48.180;11.400;2023-05-07T08:50:23;3.83;;;2.75;;
48006;SDS011;33771;48.180;11.400;2023-05-07T08:52:48;4.22;;;3.25;;
48006;SDS011;33771;48.180;11.400;2023-05-07T08:55:14;4.85;;;3.05;;
48006;SDS011;33771;48.180;11.400;2023-05-07T08:57:40;6.55;;;3.50;;
48006;SDS011;33771;48.180;11.400;2023-05-07T09:00:06;5.32;;;3.03;;
48006;SDS011;33771;48.180;11.400;2023-05-07T09:02:33;4.22;;;3.10;;
48006;SDS011;33771;48.180;11.400;2023-05-07T09:05:00;4.60;;;3.13;;
48006;SDS011;33771;48.180;11.400;2023-05-07T09:07:26;5.85;;;2.80;;
48006;SDS011;33771;48.180;11.400;2023-05-07T09:09:51;5.40;;;3.25;;
48006;SDS011;33771;48.180;11.400;2023-05-07T09:12:19;8.93;;;2.90;;
48006;SDS011;33771;48.180;11.400;2023-05-07T09:14:45;4.75;;;3.10;;
48006;SDS011;33771;48.180;11.400;2023-05-07T09:17:11;3.80;;;2.63;;
48006;SDS011;33771;48.180;11.400;2023-05-07T09:19:37;5.97;;;2.90;;
48006;SDS011;33771;48.180;11.400;2023-05-07T09:22:04;5.22;;;2.97;;
48006;SDS011;33771;48.180;11.400;2023-05-07T09:24:32;7.85;;;3.25;;
48006;SDS011;33771;48.180;11.400;2023-05-07T09:27:02;4.28;;;2.67;;
48006;SDS011;33771;48.180;11.400;2023-05-07T09:29:28;4.32;;;2.85;;
48006;SDS011;33771;48.180;11.400;2023-05-07T09:31:55;3.20;;;2.10;;
48006;SDS011;33771;48.180;11.400;2023-05-07T09:34:21;4.40;;;1.88;;
48006;SDS011;33771;48.180;11.400;2023-05-07T09:36:47;4.45;;;1.95;;
48006;SDS011;33771;48.180;11.400;2023-05-07T09:39:13;4.53;;;2.15;;
48006;SDS011;33771;48.180;11.400;2023-05-07T09:41:46;6.43;;;2.38;;
48006;SDS011;33771;48.180;11.400;2023-05-07T09:44:13;3.53;;;2.13;;
48006;SDS011;33771;48.180;11.400;2023-05-07T09:46:39;3.97;;;1.80;;
48006;SDS011;33771;48.180;11.400;2023-05-07T09:49:11;3.70;;;2.10;;
48006;SDS011;33771;48.180;11.400;2023-05-07T09:51:43;3.80;;;2.38;;
48006;SDS011;33771;48.180;11.400;2023-05-07T09:54:13;2.47;;;1.60;;
48006;SDS011;33771;48.180;11.400;2023-05-07T09:56:39;4.25;;;2.20;;
48006;SDS011;33771;48.180;11.400;2023-05-07T09:59:06;8.27;;;2.35;;
48006;SDS011;33771;48.180;11.400;2023-05-07T10:01:33;4.53;;;2.42;;
48006;SDS011;33771;48.180;11.400;2023-05-07T10:04:02;3.50;;;2.25;;
48006;SDS011;33771;48.180;11.400;2023-05-07T10:06:29;3.65;;;1.60;;
48006;SDS011;33771;48.180;11.400;2023-05-07T10:08:55;2.85;;;1.80;;
48006;SDS011;33771;48.180;11.400;2023-05-07T10:11:21;6.00;;;2.50;;
48006;SDS011;33771;48.180;11.400;2023-05-07T10:13:48;3.22;;;2.13;;
48006;SDS011;33771;48.180;11.400;2023-05-07T10:16:14;3.97;;;2.60;;
48006;SDS011;33771;48.180;11.400;2023-05-07T10:18:40;4.03;;;2.30;;
48006;SDS011;33771;48.180;11.400;2023-05-07T10:21:22;4.45;;;2.13;;
48006;SDS011;33771;48.180;11.400;2023-05-07T10:26:28;2.58;;;1.70;;
48006;SDS011;33771;48.180;11.400;2023-05-07T10:28:58;4.50;;;2.50;;
48006;SDS011;33771;48.180;11.400;2023-05-07T10:34:23;4.18;;;2.00;;
48006;SDS011;33771;48.180;11.400;2023-05-07T10:36:53;3.60;;;2.20;;
48006;SDS011;33771;48.180;11.400;2023-05-07T10:39:29;4.57;;;2.15;;
48006;SDS011;33771;48.180;11.400;2023-05-07T10:41:55;8.55;;;2.80;;
48006;SDS011;33771;48.180;11.400;2023-05-07T10:44:28;5.45;;;1.90;;
48006;SDS011;33771;48.180;11.400;2023-05-07T10:47:10;4.03;;;1.70;;
48006;SDS011;33771;48.180;11.400;2023-05-07T10:49:51;4.07;;;2.17;;
48006;SDS011;33771;48.180;11.400;2023-05-07T10:52:31;3.88;;;2.10;;
48006;SDS011;33771;48.180;11.400;2023-05-07T10:57:46;5.70;;;2.53;;
48006;SDS011;33771;48.180;11.400;2023-05-07T11:05:25;4.72;;;2.00;;
48006;SDS011;33771;48.180;11.400;2023-05-07T11:07:55;3.17;;;2.20;;
48006;SDS011;33771;48.180;11.400;2023-05-07T11:10:21;19.42;;;17.77;;
48006;SDS011;33771;48.180;11.400;2023-05-07T11:15:12;2.05;;;1.67;;
48006;SDS011;33771;48.180;11.400;2023-05-07T11:17:58;3.72;;;2.30;;
48006;SDS011;33771;48.180;11.400;2023-05-07T11:26:05;4.03;;;2.28;;
48006;SDS011;33771;48.180;11.400;2023-05-07T11:28:38;4.38;;;2.08;;
48006;SDS011;33771;48.180;11.400;2023-05-07T11:31:05;3.42;;;2.10;;
48006;SDS011;33771;48.180;11.400;2023-05-07T11:33:31;5.05;;;1.85;;
48006;SDS011;33771;48.180;11.400;2023-05-07T11:35:57;3.58;;;2.08;;
48006;SDS011;33771;48.180;11.400;2023-05-07T11:38:25;3.22;;;2.00;;
48006;SDS011;33771;48.180;11.400;2023-05-07T11:43:22;3.97;;;2.30;;
48006;SDS011;33771;48.180;11.400;2023-05-07T11:45:48;3.17;;;1.85;;
48006;SDS011;33771;48.180;11.400;2023-05-07T11:48:15;4.85;;;2.67;;
48006;SDS011;33771;48.180;11.400;2023-05-07T11:50:54;4.72;;;2.00;;
48006;SDS011;33771;48.180;11.400;2023-05-07T11:53:28;2.80;;;2.03;;
48006;SDS011;33771;48.180;11.400;2023-05-07T11:56:12;6.38;;;2.38;;
48006;SDS011;33771;48.180;11.400;2023-05-07T11:58:39;2.58;;;1.73;;
48006;SDS011;33771;48.180;11.400;2023-05-07T12:01:09;4.15;;;1.90;;
48006;SDS011;33771;48.180;11.400;2023-05-07T12:03:37;5.47;;;2.20;;
48006;SDS011;33771;48.180;11.400;2023-05-07T12:06:07;4.28;;;1.80;;
48006;SDS011;33771;48.180;11.400;2023-05-07T12:08:35;3.38;;;2.05;;
48006;SDS011;33771;48.180;11.400;2023-05-07T12:11:02;2.70;;;1.63;;
48006;SDS011;33771;48.180;11.400;2023-05-07T12:13:28;3.60;;;2.08;;
48006;SDS011;33771;48.180;11.400;2023-05-07T12:15:55;2.60;;;1.90;;
48006;SDS011;33771;48.180;11.400;2023-05-07T12:18:22;3.67;;;1.70;;
48006;SDS011;33771;48.180;11.400;2023-05-07T12:20:48;4.25;;;1.80;;
48006;SDS011;33771;48.180;11.400;2023-05-07T12:23:15;8.20;;;2.15;;
48006;SDS011;33771;48.180;11.400;2023-05-07T12:25:42;2.78;;;1.77;;
48006;SDS011;33771;48.180;11.400;2023-05-07T12:28:14;3.40;;;1.85;;
48006;SDS011;33771;48.180;11.400;2023-05-07T12:30:41;2.42;;;1.60;;
48006;SDS011;33771;48.180;11.400;2023-05-07T12:33:08;4.40;;;1.90;;
48006;SDS011;33771;48.180;11.400;2023-05-07T12:35:36;4.05;;;2.08;;
48006;SDS011;33771;48.180;11.400;2023-05-07T12:38:06;15.10;;;2.60;;
48006;SDS011;33771;48.180;11.400;2023-05-07T12:40:42;5.28;;;1.70;;
48006;SDS011;33771;48.180;11.400;2023-05-07T12:43:08;4.47;;;2.08;;
48006;SDS011;33771;48.180;11.400;2023-05-07T12:45:41;3.45;;;2.00;;
48006;SDS011;33771;48.180;11.400;2023-05-07T12:48:09;3.97;;;1.80;;
48006;SDS011;33771;48.180;11.400;2023-05-07T12:50:38;3.00;;;1.80;;
48006;SDS011;33771;48.180;11.400;2023-05-07T12:53:04;3.60;;;1.98;;
48006;SDS011;33771;48.180;11.400;2023-05-07T12:55:40;4.35;;;1.85;;
48006;SDS011;33771;48.180;11.400;2023-05-07T12:58:07;4.10;;;2.30;;
48006;SDS011;33771;48.180;11.400;2023-05-07T13:00:36;3.55;;;1.52;;
48006;SDS011;33771;48.180;11.400;2023-05-07T13:03:03;3.15;;;1.70;;
48006;SDS011;33771;48.180;11.400;2023-05-07T13:05:29;2.95;;;1.90;;
48006;SDS011;33771;48.180;11.400;2023-05-07T13:07:56;2.80;;;1.70;;
48006;SDS011;33771;48.180;11.400;2023-05-07T13:10:22;4.93;;;2.00;;
48006;SDS011;33771;48.180;11.400;2023-05-07T13:12:48;4.55;;;2.00;;
48006;SDS011;33771;48.180;11.400;2023-05-07T13:15:15;3.53;;;2.20;;
48006;SDS011;33771;48.180;11.400;2023-05-07T13:17:41;2.28;;;1.55;;
48006;SDS011;33771;48.180;11.400;2023-05-07T13:20:06;4.25;;;2.28;;
48006;SDS011;33771;48.180;11.400;2023-05-07T13:22:34;3.30;;;1.55;;
48006;SDS011;33771;48.180;11.400;2023-05-07T13:24:59;3.63;;;1.77;;
48006;SDS011;33771;48.180;11.400;2023-05-07T13:27:25;3.08;;;1.90;;
48006;SDS011;33771;48.180;11.400;2023-05-07T13:29:51;2.55;;;1.55;;
48006;SDS011;33771;48.180;11.400;2023-05-07T13:32:16;3.05;;;1.80;;
48006;SDS011;33771;48.180;11.400;2023-05-07T13:34:42;4.00;;;1.90;;
48006;SDS011;33771;48.180;11.400;2023-05-07T13:37:07;4.72;;;2.22;;
48006;SDS011;33771;48.180;11.400;2023-05-07T13:39:33;5.00;;;2.35;;
48006;SDS011;33771;48.180;11.400;2023-05-07T13:41:58;4.53;;;2.38;;
48006;SDS011;33771;48.180;11.400;2023-05-07T13:44:24;4.03;;;2.35;;
48006;SDS011;33771;48.180;11.400;2023-05-07T13:46:50;3.60;;;2.28;;
48006;SDS011;33771;48.180;11.400;2023-05-07T13:49:16;3.67;;;2.03;;
48006;SDS011;33771;48.180;11.400;2023-05-07T13:51:41;5.18;;;2.15;;
48006;SDS011;33771;48.180;11.400;2023-05-07T13:54:07;3.40;;;2.30;;
48006;SDS011;33771;48.180;11.400;2023-05-07T13:56:33;4.38;;;1.98;;
48006;SDS011;33771;48.180;11.400;2023-05-07T13:58:58;5.18;;;2.50;;
48006;SDS011;33771;48.180;11.400;2023-05-07T14:01:24;3.08;;;2.10;;
48006;SDS011;33771;48.180;11.400;2023-05-07T14:03:50;3.72;;;2.17;;
48006;SDS011;33771;48.180;11.400;2023-05-07T14:06:15;4.22;;;2.00;;
48006;SDS011;33771;48.180;11.400;2023-05-07T14:08:41;3.85;;;2.40;;
48006;SDS011;33771;48.180;11.400;2023-05-07T14:11:06;3.85;;;2.22;;
48006;SDS011;33771;48.180;11.400;2023-05-07T14:13:32;6.63;;;2.20;;
48006;SDS011;33771;48.180;11.400;2023-05-07T14:15:59;2.92;;;2.40;;
48006;SDS011;33771;48.180;11.400;2023-05-07T14:18:25;4.15;;;2.13;;
48006;SDS011;33771;48.180;11.400;2023-05-07T14:20:51;4.72;;;2.72;;
48006;SDS011;33771;48.180;11.400;2023-05-07T14:23:17;5.43;;;2.97;;
48006;SDS011;33771;48.180;11.400;2023-05-07T14:25:44;3.90;;;3.33;;
48006;SDS011;33771;48.180;11.400;2023-05-07T14:28:12;7.00;;;2.90;;
48006;SDS011;33771;48.180;11.400;2023-05-07T14:30:38;3.65;;;2.70;;
48006;SDS011;33771;48.180;11.400;2023-05-07T14:33:03;6.18;;;2.60;;
48006;SDS011;33771;48.180;11.400;2023-05-07T14:35:29;5.40;;;2.83;;
48006;SDS011;33771;48.180;11.400;2023-05-07T14:37:55;7.07;;;3.47;;
48006;SDS011;33771;48.180;11.400;2023-05-07T14:40:20;5.30;;;2.90;;
48006;SDS011;33771;48.180;11.400;2023-05-07T14:42:46;4.03;;;2.47;;
48006;SDS011;33771;48.180;11.400;2023-05-07T14:45:12;3.70;;;2.60;;
48006;SDS011;33771;48.180;11.400;2023-05-07T14:47:37;4.03;;;2.53;;
48006;SDS011;33771;48.180;11.400;2023-05-07T14:50:03;3.38;;;2.30;;
48006;SDS011;33771;48.180;11.400;2023-05-07T14:52:29;5.28;;;2.45;;